Time;durP1;ratioP1;P1;durP2;ratioP2;P2;SDS_P1;SDS_P2;PMS_P1;PMS_P2;Temp;Humidity;BMP_temperature;BMP_pressure;BME280_temperature;BME280_humidity;BME280_pressure;Samples;Min_cycle;Max_cycle;Signal;HPM_P1;HPM_P2
2023/05/14 00:01:59;;;;;;;3.20;3.00;;;;;;;14.21;53.51;95321.03;5084307;28;20189;-70
2023/05/14 00:04:27;;;;;;;4.20;3.30;;;;;;;14.22;53.49;95319.06;5085914;28;20193;-70
2023/05/14 00:06:57;;;;;;;3.47;3.22;;;;;;;14.24;54.22;95327.03;5087931;28;20201;-70
2023/05/14 00:09:31;;;;;;;3.75;3.40;;;;;;;14.20;54.92;95311.13;5087407;28;20177;-70
2023/05/14 00:11:59;;;;;;;3.42;3.15;;;;;;;14.19;55.49;95311.47;5086990;28;20209;-70
2023/05/14 00:14:28;;;;;;;4.50;4.10;;;;;;;14.15;56.40;95303.09;5068965;28;20653;-70
2023/05/14 00:16:56;;;;;;;4.13;3.28;;;;;;;14.11;56.86;95295.88;5085029;28;20185;-70
2023/05/14 00:19:24;;;;;;;3.35;3.05;;;;;;;14.09;56.69;95289.91;5086136;28;20197;-70
2023/05/14 00:21:52;;;;;;;3.42;3.10;;;;;;;14.06;56.65;95297.00;5084915;28;20197;-70
2023/05/14 00:24:20;;;;;;;3.03;2.83;;;;;;;14.06;56.44;95293.44;5084781;28;20609;-70
2023/05/14 00:26:54;;;;;;;4.10;3.30;;;;;;;14.06;57.13;95285.91;5085549;28;20197;-70
2023/05/14 00:29:22;;;;;;;4.00;3.42;;;;;;;14.07;56.30;95284.72;5084364;28;20651;-71
2023/05/14 00:31:50;;;;;;;4.50;3.55;;;;;;;14.05;55.36;95284.31;5082579;28;20205;-70
2023/05/14 00:34:18;;;;;;;4.65;3.30;;;;;;;14.08;55.37;95277.22;5084601;28;20201;-71
2023/05/14 00:36:46;;;;;;;4.90;3.40;;;;;;;14.05;54.05;95272.41;5082929;28;20254;-70
2023/05/14 00:39:13;;;;;;;3.75;3.42;;;;;;;14.05;54.44;95280.72;5083806;28;20209;-70
2023/05/14 00:41:41;;;;;;;3.38;3.08;;;;;;;14.05;54.45;95277.94;5084363;28;20186;-70
2023/05/14 00:44:17;;;;;;;3.80;3.13;;;;;;;14.05;54.10;95272.41;5085080;28;20187;-70
2023/05/14 00:46:45;;;;;;;3.53;3.25;;;;;;;14.07;54.26;95279.19;5083911;28;20201;-71
2023/05/14 00:49:13;;;;;;;3.30;3.05;;;;;;;14.09;54.37;95278.81;5084035;28;20196;-70
2023/05/14 00:51:45;;;;;;;3.25;2.95;;;;;;;14.08;54.39;95268.88;5080312;28;20205;-71
2023/05/14 00:54:14;;;;;;;4.28;3.60;;;;;;;14.02;53.78;95267.63;5081500;28;20193;-71
2023/05/14 00:56:43;;;;;;;3.78;3.42;;;;;;;13.99;54.20;95263.59;5080275;28;20269;-71
2023/05/14 00:59:13;;;;;;;3.65;3.35;;;;;;;13.85;54.11;95263.34;5082193;28;20208;-71
2023/05/14 01:01:43;;;;;;;3.40;3.10;;;;;;;13.66;54.50;95251.16;5083184;28;20254;-71
2023/05/14 01:04:12;;;;;;;3.70;3.40;;;;;;;13.58;54.57;95260.50;5082508;28;20224;-71
2023/05/14 01:06:49;;;;;;;3.58;3.00;;;;;;;13.56;54.62;95268.38;5082486;28;20200;-71
2023/05/14 01:09:24;;;;;;;3.35;3.05;;;;;;;13.59;54.86;95272.38;5082086;28;20201;-71
2023/05/14 01:11:56;;;;;;;3.47;3.17;;;;;;;13.52;54.38;95253.66;5083372;28;20235;-71
2023/05/14 01:14:36;;;;;;;3.38;3.08;;;;;;;13.47;54.48;95248.41;5082595;28;20237;-71
2023/05/14 01:17:08;;;;;;;3.40;3.00;;;;;;;13.45;54.12;95254.31;5081145;28;20197;-70
2023/05/14 01:19:40;;;;;;;3.35;3.08;;;;;;;13.50;53.59;95267.06;5080902;28;20200;-70
2023/05/14 01:22:09;;;;;;;3.38;3.05;;;;;;;13.54;53.89;95267.94;5083867;28;20197;-70
2023/05/14 01:24:37;;;;;;;4.00;3.25;;;;;;;13.48;53.59;95272.97;5081667;28;20250;-70
2023/05/14 01:27:13;;;;;;;3.40;3.10;;;;;;;13.46;53.91;95282.81;5082476;28;20197;-70
2023/05/14 01:29:46;;;;;;;3.17;2.88;;;;;;;13.45;53.47;95284.78;5084120;28;20192;-70
2023/05/14 01:32:16;;;;;;;3.85;2.95;;;;;;;13.39;53.45;95285.44;5081930;28;20231;-70
2023/05/14 01:34:47;;;;;;;5.82;3.00;;;;;;;13.36;53.92;95294.50;5082157;28;20205;-70
2023/05/14 01:37:18;;;;;;;3.03;2.70;;;;;;;13.41;53.94;95292.25;5082014;28;20197;-70
2023/05/14 01:39:46;;;;;;;3.35;2.85;;;;;;;13.46;53.78;95291.13;5083066;28;20193;-70
2023/05/14 01:42:16;;;;;;;3.20;2.90;;;;;;;13.42;53.49;95293.03;5080965;28;20204;-69
2023/05/14 01:44:44;;;;;;;3.15;2.78;;;;;;;13.41;53.60;95288.66;5080241;28;20201;-69
2023/05/14 01:47:14;;;;;;;3.17;2.88;;;;;;;13.44;53.51;95285.97;5079843;28;20193;-70
2023/05/14 01:49:44;;;;;;;3.20;2.90;;;;;;;13.39;54.21;95285.44;5081082;28;20196;-69
2023/05/14 01:52:14;;;;;;;3.80;2.97;;;;;;;13.30;54.25;95287.66;5082225;28;20213;-69
2023/05/14 01:54:46;;;;;;;3.17;2.78;;;;;;;13.30;55.23;95287.66;5082364;28;20185;-69
2023/05/14 01:57:17;;;;;;;3.10;2.90;;;;;;;13.29;54.89;95302.66;5082402;28;20189;-69
2023/05/14 01:59:48;;;;;;;3.97;2.83;;;;;;;13.30;55.45;95296.75;5080928;28;20196;-69
2023/05/14 02:02:19;;;;;;;3.22;2.97;;;;;;;13.28;55.39;95295.53;5080147;28;20223;-70
2023/05/14 02:04:46;;;;;;;3.33;2.55;;;;;;;13.32;55.43;95293.63;5081189;28;20197;-70
2023/05/14 02:07:14;;;;;;;3.00;2.65;;;;;;;13.33;55.65;95292.47;5081970;28;20201;-70
2023/05/14 02:09:43;;;;;;;2.83;2.63;;;;;;;13.35;55.35;95298.44;5080922;28;20208;-70
2023/05/14 02:12:13;;;;;;;3.67;3.00;;;;;;;13.38;55.47;95301.28;5082143;28;20266;-70
2023/05/14 02:14:41;;;;;;;2.75;2.55;;;;;;;13.35;55.17;95295.66;5084074;28;20241;-70
2023/05/14 02:17:14;;;;;;;3.15;2.95;;;;;;;13.40;55.39;95304.50;5084082;28;20682;-70
2023/05/14 02:19:45;;;;;;;3.33;2.70;;;;;;;13.43;55.47;95302.94;5082926;28;20177;-70
2023/05/14 02:22:13;;;;;;;3.13;2.80;;;;;;;13.44;55.11;95304.56;5082611;28;20193;-70
2023/05/14 02:24:43;;;;;;;2.75;2.60;;;;;;;13.46;55.71;95308.56;5080595;28;20208;-70
2023/05/14 02:27:12;;;;;;;2.80;2.60;;;;;;;13.48;56.22;95306.22;5080331;28;20201;-70
2023/05/14 02:29:46;;;;;;;3.20;2.80;;;;;;;13.44;57.15;95304.56;5081271;28;20200;-70
2023/05/14 02:32:13;;;;;;;3.00;2.70;;;;;;;13.37;56.30;95312.72;5079518;28;20223;-70
2023/05/14 02:34:44;;;;;;;2.80;2.60;;;;;;;13.34;56.78;95308.72;5078248;28;20203;-70
2023/05/14 02:37:12;;;;;;;2.97;2.67;;;;;;;13.33;56.87;95309.91;5079861;28;20266;-70
2023/05/14 02:39:42;;;;;;;2.92;2.65;;;;;;;13.23;56.71;95313.22;5078060;28;20193;-70
2023/05/14 02:42:13;;;;;;;3.60;2.80;;;;;;;13.21;56.38;95321.06;5079231;28;20193;-70
2023/05/14 02:44:42;;;;;;;2.90;2.70;;;;;;;13.21;56.81;95330.16;5081264;28;20228;-69
2023/05/14 02:47:10;;;;;;;2.90;2.60;;;;;;;13.23;56.25;95330.66;5080178;28;20223;-70
2023/05/14 02:49:40;;;;;;;2.78;2.53;;;;;;;13.26;56.66;95334.66;5082347;28;20204;-70
2023/05/14 02:52:11;;;;;;;2.75;2.55;;;;;;;13.26;56.25;95337.44;5081080;28;20209;-70
2023/05/14 02:54:39;;;;;;;3.00;2.80;;;;;;;13.24;56.63;95335.03;5081759;28;20216;-70
2023/05/14 02:57:07;;;;;;;3.25;2.80;;;;;;;13.26;55.89;95331.09;5082474;28;20182;-70
2023/05/14 02:59:35;;;;;;;2.85;2.65;;;;;;;13.27;55.68;95333.50;5081953;28;20209;-70
2023/05/14 03:02:05;;;;;;;2.90;2.70;;;;;;;13.27;55.49;95332.69;5082040;28;20192;-70
2023/05/14 03:04:35;;;;;;;3.63;2.90;;;;;;;13.28;55.47;95343.41;5081623;28;20193;-70
2023/05/14 03:07:04;;;;;;;3.15;2.60;;;;;;;13.24;54.77;95329.47;5081493;28;20284;-70
2023/05/14 03:09:32;;;;;;;2.90;2.70;;;;;;;13.18;54.73;95317.06;5081164;28;20208;-70
2023/05/14 03:12:00;;;;;;;3.60;2.90;;;;;;;13.19;55.00;95309.56;5080397;28;20213;-70
2023/05/14 03:14:30;;;;;;;3.78;3.00;;;;;;;13.16;55.01;95307.53;5080723;28;20244;-70
2023/05/14 03:16:58;;;;;;;2.80;2.60;;;;;;;13.19;55.03;95312.34;5082393;28;20215;-70
2023/05/14 03:19:28;;;;;;;3.35;2.83;;;;;;;13.19;55.53;95310.38;5081079;28;20679;-69
2023/05/14 03:21:59;;;;;;;2.90;2.70;;;;;;;13.20;55.47;95309.19;5079547;28;20201;-69
2023/05/14 03:24:27;;;;;;;3.13;2.83;;;;;;;13.19;55.81;95304.81;5077645;28;20602;-69
2023/05/14 03:26:56;;;;;;;3.00;2.80;;;;;;;13.20;56.25;95311.97;5082192;28;20200;-69
2023/05/14 03:29:24;;;;;;;4.10;2.80;;;;;;;13.20;57.52;95317.50;5083361;28;20612;-69
2023/05/14 03:31:53;;;;;;;3.33;3.00;;;;;;;13.16;57.96;95319.41;5083043;28;20189;-70
2023/05/14 03:34:21;;;;;;;3.50;3.20;;;;;;;13.12;58.23;95320.50;5082859;28;20200;-70
2023/05/14 03:36:53;;;;;;;2.97;2.78;;;;;;;13.06;58.96;95319.16;5082928;28;20185;-70
2023/05/14 03:39:21;;;;;;;3.05;2.70;;;;;;;12.97;59.50;95320.19;5081374;28;20189;-70
2023/05/14 03:41:49;;;;;;;3.08;2.88;;;;;;;12.90;60.53;95313.69;5079436;28;20204;-70
2023/05/14 03:44:17;;;;;;;5.68;3.30;;;;;;;12.69;60.64;95305.69;5080704;28;20196;-70
2023/05/14 03:46:45;;;;;;;2.55;2.35;;;;;;;12.55;61.20;95313.66;5080154;28;20605;-70
2023/05/14 03:49:14;;;;;;;3.95;2.60;;;;;;;12.59;61.09;95314.56;5078807;28;20197;-70
2023/05/14 03:51:41;;;;;;;3.10;2.90;;;;;;;12.53;60.89;95314.84;5079581;28;20193;-69
2023/05/14 03:54:12;;;;;;;2.63;2.42;;;;;;;12.40;61.15;95320.84;5078547;28;20225;-68
2023/05/14 03:56:40;;;;;;;2.80;2.60;;;;;;;12.46;61.13;95322.97;5079775;28;20220;-68
2023/05/14 03:59:08;;;;;;;3.15;2.92;;;;;;;12.48;61.19;95311.53;5081820;28;20185;-68
2023/05/14 04:01:36;;;;;;;2.97;2.78;;;;;;;12.58;60.83;95316.53;5081217;28;20173;-68
2023/05/14 04:04:05;;;;;;;2.75;2.55;;;;;;;12.59;60.59;95317.31;5080218;28;20197;-69
2023/05/14 04:06:32;;;;;;;2.78;2.58;;;;;;;12.62;60.76;95314.63;5080128;28;20208;-69
2023/05/14 04:09:02;;;;;;;4.53;2.78;;;;;;;12.62;59.71;95331.25;5081476;28;20235;-69
2023/05/14 04:11:30;;;;;;;3.28;2.97;;;;;;;12.66;59.67;95325.78;5080465;28;20201;-69
2023/05/14 04:13:59;;;;;;;3.08;2.72;;;;;;;12.62;59.38;95334.00;5081128;28;20244;-69
2023/05/14 04:16:29;;;;;;;2.67;2.47;;;;;;;12.66;59.48;95336.84;5080071;28;20213;-69
2023/05/14 04:18:59;;;;;;;2.88;2.67;;;;;;;12.70;59.24;95335.78;5080320;28;20296;-69
2023/05/14 04:21:28;;;;;;;3.03;2.70;;;;;;;12.76;59.16;95342.63;5079729;28;20189;-69
2023/05/14 04:23:55;;;;;;;3.17;2.65;;;;;;;12.83;58.95;95338.44;5078618;28;20590;-69
2023/05/14 04:26:23;;;;;;;3.28;2.90;;;;;;;12.89;58.42;95343.34;5079373;28;20302;-69
2023/05/14 04:28:55;;;;;;;2.53;2.33;;;;;;;12.91;58.79;95351.28;5079437;28;20612;-69
2023/05/14 04:31:23;;;;;;;2.70;2.50;;;;;;;12.89;57.94;95351.66;5078459;28;20236;-69
2023/05/14 04:33:52;;;;;;;2.92;2.58;;;;;;;12.86;58.26;95348.78;5078113;28;20213;-69
2023/05/14 04:36:20;;;;;;;2.58;2.38;;;;;;;12.86;58.25;95349.59;5079291;28;20185;-69
2023/05/14 04:38:48;;;;;;;2.97;2.78;;;;;;;12.90;58.09;95357.97;5078089;28;20189;-69
2023/05/14 04:41:16;;;;;;;3.35;3.13;;;;;;;12.84;57.94;95362.97;5077832;28;20181;-69
2023/05/14 04:43:45;;;;;;;3.60;3.05;;;;;;;12.80;58.35;95372.38;5077997;28;20204;-69
2023/05/14 04:46:14;;;;;;;3.00;2.80;;;;;;;12.78;58.37;95378.25;5081188;28;20250;-69
2023/05/14 04:48:43;;;;;;;3.65;3.08;;;;;;;12.79;60.38;95382.66;5081878;28;20279;-69
2023/05/14 04:51:11;;;;;;;2.92;2.72;;;;;;;12.75;60.98;95384.53;5081481;28;20197;-68
2023/05/14 04:53:41;;;;;;;3.78;3.05;;;;;;;12.69;62.79;95385.97;5082740;28;20236;-68
2023/05/14 04:56:11;;;;;;;3.78;3.47;;;;;;;12.64;63.13;95400.06;5082085;28;20613;-69
2023/05/14 04:58:40;;;;;;;3.30;3.10;;;;;;;12.63;65.41;95390.16;5081623;28;20211;-68
2023/05/14 05:01:08;;;;;;;3.03;2.83;;;;;;;12.55;65.56;95405.78;5083142;28;20204;-68
2023/05/14 05:03:37;;;;;;;3.30;3.10;;;;;;;12.50;66.11;95409.63;5082868;28;20181;-69
2023/05/14 05:06:06;;;;;;;3.88;3.40;;;;;;;12.47;65.70;95418.63;5082173;28;20242;-67
2023/05/14 05:08:33;;;;;;;4.00;3.47;;;;;;;12.46;67.47;95419.00;5076937;28;20259;-67
2023/05/14 05:11:01;;;;;;;3.55;3.25;;;;;;;12.40;68.93;95415.69;5076766;28;20189;-68
2023/05/14 05:13:28;;;;;;;3.95;3.00;;;;;;;12.31;69.68;95417.84;5075579;28;20303;-69
2023/05/14 05:15:55;;;;;;;4.43;3.35;;;;;;;12.27;68.75;95425.19;5077641;28;20177;-68
2023/05/14 05:18:23;;;;;;;3.53;3.22;;;;;;;12.27;68.81;95423.25;5076617;28;20215;-68
2023/05/14 05:20:52;;;;;;;4.13;3.20;;;;;;;12.29;69.58;95431.19;5076124;28;20682;-67
2023/05/14 05:23:21;;;;;;;3.53;3.33;;;;;;;12.28;69.51;95443.44;5077036;28;20609;-67
2023/05/14 05:25:49;;;;;;;3.70;3.33;;;;;;;12.27;69.59;95439.03;5076490;28;20507;-67
2023/05/14 05:28:17;;;;;;;3.50;3.30;;;;;;;12.19;70.65;95438.03;5076355;28;20196;-68
2023/05/14 05:30:45;;;;;;;3.60;3.30;;;;;;;12.12;71.44;95439.81;5076868;28;20186;-67
2023/05/14 05:33:13;;;;;;;3.22;3.03;;;;;;;12.10;71.79;95437.41;5076414;28;20274;-68
2023/05/14 05:35:43;;;;;;;4.75;3.53;;;;;;;12.01;72.45;95436.75;5076289;28;20314;-68
2023/05/14 05:38:12;;;;;;;4.45;3.10;;;;;;;11.95;72.76;95443.72;5077180;28;20215;-68
2023/05/14 05:40:40;;;;;;;3.58;3.15;;;;;;;11.94;72.89;95439.31;5076739;28;20185;-68
2023/05/14 05:43:09;;;;;;;4.60;3.25;;;;;;;11.95;73.13;95438.19;5077042;28;20204;-68
2023/05/14 05:45:36;;;;;;;3.85;3.40;;;;;;;11.91;73.65;95443.63;5075983;28;20201;-68
2023/05/14 05:48:05;;;;;;;3.80;3.50;;;;;;;11.86;74.48;95451.34;5077038;28;20186;-69
2023/05/14 05:50:35;;;;;;;4.70;3.65;;;;;;;11.84;74.95;95450.88;5076839;28;20287;-68
2023/05/14 05:53:04;;;;;;;5.38;3.67;;;;;;;11.83;74.46;95455.56;5076786;28;20213;-68
2023/05/14 05:55:36;;;;;;;3.83;3.42;;;;;;;11.79;75.47;95454.66;5075897;28;20300;-68
2023/05/14 05:58:06;;;;;;;3.60;3.30;;;;;;;11.72;75.80;95451.69;5075753;28;20204;-68
2023/05/14 06:00:41;;;;;;;3.67;3.38;;;;;;;11.69;75.04;95442.19;5075335;28;20197;-68
2023/05/14 06:03:13;;;;;;;4.35;3.95;;;;;;;11.69;75.42;95442.19;5076926;28;20189;-68
2023/05/14 06:05:41;;;;;;;3.75;3.30;;;;;;;11.64;75.88;95441.59;5076212;28;20211;-68
2023/05/14 06:08:11;;;;;;;4.32;3.80;;;;;;;11.53;75.79;95444.84;5076649;28;20181;-68
2023/05/14 06:10:44;;;;;;;5.13;3.97;;;;;;;11.49;75.81;95448.69;5075193;28;20606;-68
2023/05/14 06:13:13;;;;;;;4.85;4.22;;;;;;;11.49;76.56;95448.69;5058781;28;20221;-68
2023/05/14 06:15:41;;;;;;;4.63;3.58;;;;;;;11.46;76.52;95449.38;5076346;28;20208;-68
2023/05/14 06:18:08;;;;;;;3.97;3.60;;;;;;;11.46;77.21;95443.84;5076288;28;20189;-68
2023/05/14 06:20:40;;;;;;;6.63;4.25;;;;;;;11.41;78.23;95439.38;5076115;28;20185;-68
2023/05/14 06:23:11;;;;;;;5.40;4.72;;;;;;;11.38;78.51;95434.56;5076203;28;20189;-68
2023/05/14 06:25:44;;;;;;;5.68;5.18;;;;;;;11.38;78.97;95442.03;5075802;28;20557;-67
2023/05/14 06:28:12;;;;;;;5.25;4.78;;;;;;;11.38;78.42;95447.56;5076170;28;20185;-67
2023/05/14 06:30:42;;;;;;;5.47;4.97;;;;;;;11.40;78.92;95453.53;5075129;28;20197;-68
2023/05/14 06:33:12;;;;;;;6.55;4.75;;;;;;;11.38;79.01;95462.16;5075936;28;20220;-68
2023/05/14 06:35:41;;;;;;;4.95;4.55;;;;;;;11.33;78.76;95462.41;5075291;28;20189;-70
2023/05/14 06:38:11;;;;;;;4.82;4.32;;;;;;;11.35;78.59;95464.81;5075401;28;20247;-67
2023/05/14 06:40:41;;;;;;;5.22;4.57;;;;;;;11.35;78.98;95451.00;5074901;28;20616;-67
2023/05/14 06:43:09;;;;;;;4.95;4.40;;;;;;;11.36;78.47;95447.88;5074945;28;20197;-68
2023/05/14 06:45:37;;;;;;;6.00;4.22;;;;;;;11.33;79.23;95449.41;5076008;28;20185;-67
2023/05/14 06:48:05;;;;;;;6.00;4.50;;;;;;;11.31;80.16;95450.91;5074743;28;20197;-68
2023/05/14 06:50:33;;;;;;;5.95;5.20;;;;;;;11.30;80.63;95447.34;5074945;28;20193;-67
2023/05/14 06:53:01;;;;;;;6.10;5.60;;;;;;;11.34;79.91;95441.94;5074696;28;20604;-67
2023/05/14 06:55:29;;;;;;;5.60;5.00;;;;;;;11.32;79.68;95430.41;5074727;28;20196;-67
2023/05/14 06:58:02;;;;;;;5.28;4.60;;;;;;;11.29;79.57;95431.09;5075263;28;20559;-67
2023/05/14 07:00:30;;;;;;;5.57;4.60;;;;;;;11.29;79.17;95428.34;5074433;28;20205;-67
2023/05/14 07:02:58;;;;;;;5.82;4.68;;;;;;;11.31;78.94;95435.13;5075503;28;20185;-67
2023/05/14 07:05:26;;;;;;;4.70;4.10;;;;;;;11.31;78.72;95448.94;5074478;28;20566;-67
2023/05/14 07:07:54;;;;;;;5.05;4.55;;;;;;;11.31;79.12;95446.19;5075236;28;20207;-67
2023/05/14 07:10:22;;;;;;;5.00;4.50;;;;;;;11.30;79.30;95439.06;5075285;28;20207;-67
2023/05/14 07:12:50;;;;;;;4.50;4.10;;;;;;;11.29;79.72;95453.19;5073722;28;20189;-67
2023/05/14 07:15:23;;;;;;;4.88;4.32;;;;;;;11.26;79.82;95463.00;5074362;28;20233;-67
2023/05/14 07:17:53;;;;;;;4.80;4.40;;;;;;;11.24;79.88;95486.56;5075416;28;20243;-67
2023/05/14 07:20:22;;;;;;;5.25;4.75;;;;;;;11.24;80.32;95481.84;5074392;28;20631;-67
2023/05/14 07:22:49;;;;;;;4.95;4.55;;;;;;;11.18;80.65;95460.34;5075133;28;20236;-67
2023/05/14 07:25:17;;;;;;;5.18;4.68;;;;;;;11.09;80.88;95464.03;5075491;28;20189;-67
2023/05/14 07:27:45;;;;;;;5.30;4.80;;;;;;;11.07;80.94;95466.38;5074030;28;20652;-68
2023/05/14 07:30:13;;;;;;;5.78;5.25;;;;;;;11.01;81.27;95464.19;5074298;28;20192;-68
2023/05/14 07:32:43;;;;;;;5.78;5.18;;;;;;;11.05;81.58;95463.13;5074645;28;20250;-68
2023/05/14 07:35:11;;;;;;;6.00;5.40;;;;;;;11.08;80.95;95462.44;5074746;28;20648;-67
2023/05/14 07:37:41;;;;;;;6.10;5.60;;;;;;;11.13;80.72;95474.41;5075166;28;20193;-67
2023/05/14 07:40:10;;;;;;;7.22;5.70;;;;;;;11.11;81.08;95472.00;5073968;28;20213;-67
2023/05/14 07:42:37;;;;;;;5.72;5.22;;;;;;;11.05;81.62;95468.66;5073961;28;20201;-67
2023/05/14 07:45:05;;;;;;;7.03;5.10;;;;;;;11.04;81.89;95466.25;5074979;28;20208;-67
2023/05/14 07:47:34;;;;;;;4.95;4.55;;;;;;;11.12;81.93;95476.34;5074657;28;20211;-67
2023/05/14 07:50:03;;;;;;;5.85;5.28;;;;;;;11.08;81.15;95479.00;5074025;28;20200;-67
2023/05/14 07:52:31;;;;;;;5.35;4.88;;;;;;;11.11;81.49;95487.72;5074686;28;20651;-67
2023/05/14 07:55:00;;;;;;;5.70;5.20;;;;;;;11.08;82.01;95484.53;5074492;28;20217;-67
2023/05/14 07:57:28;;;;;;;5.68;5.15;;;;;;;11.08;82.47;95483.72;5074615;28;20173;-67
2023/05/14 07:59:56;;;;;;;6.25;5.65;;;;;;;11.04;82.61;95486.38;5073657;28;20212;-67
2023/05/14 08:02:24;;;;;;;5.60;5.10;;;;;;;11.04;82.84;95488.34;5074499;28;20615;-67
2023/05/14 08:04:53;;;;;;;5.20;4.72;;;;;;;11.10;82.86;95489.69;5073828;28;20192;-68
2023/05/14 08:07:22;;;;;;;5.65;5.25;;;;;;;11.07;82.37;95491.22;5074728;28;20192;-67
2023/05/14 08:09:52;;;;;;;6.10;5.47;;;;;;;11.04;81.88;95478.09;5074744;28;20189;-67
2023/05/14 08:12:22;;;;;;;6.07;5.47;;;;;;;11.09;82.86;95469.56;5073828;28;20606;-67
2023/05/14 08:14:50;;;;;;;5.68;5.18;;;;;;;11.04;82.86;95461.53;5073539;28;20240;-67
2023/05/14 08:17:18;;;;;;;5.90;5.40;;;;;;;11.14;83.44;95451.94;5073894;28;20229;-68
2023/05/14 08:19:46;;;;;;;6.25;5.63;;;;;;;11.15;83.15;95458.28;5074149;28;20197;-68
2023/05/14 08:22:15;;;;;;;5.30;4.90;;;;;;;11.20;82.55;95453.34;5075110;28;20208;-68
2023/05/14 08:24:50;;;;;;;5.35;4.82;;;;;;;11.22;82.58;95453.81;5075858;28;20502;-68
2023/05/14 08:27:18;;;;;;;5.85;4.78;;;;;;;11.22;82.50;95447.44;5078799;28;20212;-68
2023/05/14 08:29:46;;;;;;;6.25;5.65;;;;;;;11.29;82.35;95442.16;5078901;28;20197;-68
2023/05/14 08:32:14;;;;;;;5.63;5.13;;;;;;;11.25;82.69;95455.03;5077806;28;20250;-68
2023/05/14 08:34:44;;;;;;;5.22;4.72;;;;;;;11.18;81.98;95443.78;5078330;28;20266;-67
2023/05/14 08:37:12;;;;;;;4.95;4.45;;;;;;;11.11;82.20;95446.31;5077391;28;20632;-68
2023/05/14 08:39:40;;;;;;;5.22;4.82;;;;;;;11.14;82.20;95440.91;5077987;28;20225;-68
2023/05/14 08:42:14;;;;;;;5.30;4.90;;;;;;;11.09;81.74;95430.91;5077745;28;20193;-68
2023/05/14 08:44:48;;;;;;;5.18;4.55;;;;;;;11.08;81.80;95434.84;5078337;28;20196;-68
2023/05/14 08:47:18;;;;;;;5.13;4.63;;;;;;;11.14;81.88;95429.06;5078479;28;20216;-67
2023/05/14 08:49:48;;;;;;;5.32;4.90;;;;;;;11.13;82.04;95450.34;5078423;28;20185;-67
2023/05/14 08:52:16;;;;;;;5.22;4.72;;;;;;;11.12;81.78;95437.72;5079062;28;20242;-68
2023/05/14 08:54:45;;;;;;;5.35;4.95;;;;;;;11.17;82.42;95436.66;5078533;28;20209;-68
2023/05/14 08:57:15;;;;;;;5.90;5.30;;;;;;;11.25;81.95;95430.19;5078183;28;20189;-68
2023/05/14 08:59:44;;;;;;;5.75;4.97;;;;;;;11.34;81.74;95441.94;5078623;28;20197;-68
2023/05/14 09:02:13;;;;;;;5.10;4.70;;;;;;;11.39;81.77;95433.38;5078651;28;20228;-68
2023/05/14 09:04:41;;;;;;;6.85;5.47;;;;;;;11.39;81.77;95438.91;5077979;28;20215;-67
2023/05/14 09:07:08;;;;;;;6.60;5.45;;;;;;;11.37;81.94;95435.72;5078102;28;20193;-68
2023/05/14 09:09:39;;;;;;;5.78;5.22;;;;;;;11.37;81.85;95432.94;5078104;28;20582;-68
2023/05/14 09:12:08;;;;;;;5.50;5.10;;;;;;;11.38;81.51;95433.75;5078464;28;20231;-68
2023/05/14 09:15:10;;;;;;;5.90;5.32;;;;;;;11.37;82.30;95423.88;5078370;28;20237;-67
2023/05/14 09:18:14;;;;;;;5.88;5.38;;;;;;;11.37;82.36;95427.44;5055741;28;20318;-67
2023/05/14 09:21:20;;;;;;;6.88;6.28;;;;;;;11.38;82.15;95436.50;5038977;28;20298;-67
2023/05/14 09:24:26;;;;;;;5.57;5.07;;;;;;;11.30;82.19;95436.28;5038800;28;20667;-67
2023/05/14 09:27:35;;;;;;;6.60;5.07;;;;;;;11.33;82.00;95432.84;5055559;28;20213;-67
2023/05/14 09:30:40;;;;;;;5.93;5.43;;;;;;;11.26;82.59;95410.53;5055416;28;20198;-67
2023/05/14 09:33:49;;;;;;;8.85;6.93;;;;;;;11.18;82.83;95421.69;5038916;28;20564;-68
2023/05/14 09:36:53;;;;;;;8.32;6.00;;;;;;;11.12;83.32;95423.91;5037775;28;20707;-68
2023/05/14 09:39:59;;;;;;;6.68;5.70;;;;;;;11.13;83.62;95411.72;5038835;28;20288;-67
2023/05/14 09:43:04;;;;;;;6.00;5.50;;;;;;;11.18;82.80;95411.44;5038560;28;20263;-67
2023/05/14 09:46:09;;;;;;;5.78;5.30;;;;;;;11.20;83.04;95409.16;5055496;28;20200;-67
2023/05/14 09:49:14;;;;;;;5.85;5.35;;;;;;;11.22;83.14;95412.38;5065779;28;20224;-67
2023/05/14 09:52:20;;;;;;;6.03;5.53;;;;;;;11.28;83.17;95404.66;5076299;28;20192;-68
2023/05/14 09:55:25;;;;;;;5.78;5.28;;;;;;;11.27;83.28;95406.63;5075910;28;20233;-67
2023/05/14 09:58:33;;;;;;;6.32;5.72;;;;;;;11.30;82.86;95405.91;5076691;28;20193;-67
2023/05/14 10:01:39;;;;;;;5.85;5.22;;;;;;;11.29;83.23;95400.72;5076347;28;20196;-67
2023/05/14 10:04:48;;;;;;;6.28;5.68;;;;;;;11.26;83.05;95382.94;5076377;28;20620;-67
2023/05/14 10:07:53;;;;;;;5.88;5.35;;;;;;;11.29;83.37;95382.22;5075653;28;20251;-68
2023/05/14 10:10:58;;;;;;;6.88;6.28;;;;;;;11.29;83.39;95382.22;5076220;28;20193;-67
2023/05/14 10:14:07;;;;;;;5.90;5.40;;;;;;;11.26;83.03;95374.66;5075349;28;20211;-67
2023/05/14 10:16:41;;;;;;;6.03;5.43;;;;;;;11.27;83.12;95365.19;5075973;28;20342;-67
2023/05/14 10:19:10;;;;;;;6.80;6.20;;;;;;;11.23;83.50;95350.50;5074817;28;20205;-67
2023/05/14 10:21:48;;;;;;;7.30;6.60;;;;;;;11.19;83.65;95348.78;5071706;28;20205;-67
2023/05/14 10:24:17;;;;;;;7.00;5.82;;;;;;;11.21;83.07;95365.78;5075918;28;20201;-67
2023/05/14 10:26:47;;;;;;;6.03;5.53;;;;;;;11.18;83.24;95381.09;5075943;28;20201;-67
2023/05/14 10:29:18;;;;;;;6.55;5.95;;;;;;;11.19;83.32;95382.72;5075530;28;20208;-67
2023/05/14 10:31:52;;;;;;;6.18;5.55;;;;;;;11.18;83.23;95374.75;5074839;28;20205;-67
2023/05/14 10:34:39;;;;;;;6.32;5.72;;;;;;;11.17;83.40;95362.13;5075962;28;20205;-67
2023/05/14 10:37:12;;;;;;;6.82;6.18;;;;;;;11.19;84.23;95379.16;5075587;28;20201;-67
2023/05/14 10:39:45;;;;;;;6.55;5.95;;;;;;;11.17;84.38;95382.25;5075579;28;20505;-66
2023/05/14 10:42:20;;;;;;;6.50;5.85;;;;;;;11.19;84.14;95370.88;5072615;28;20215;-67
2023/05/14 10:45:00;;;;;;;6.82;6.32;;;;;;;11.19;84.30;95362.59;5074782;28;20203;-67
2023/05/14 10:47:34;;;;;;;6.68;6.05;;;;;;;11.19;83.67;95376.41;5074814;28;20226;-67
2023/05/14 10:50:07;;;;;;;7.47;6.78;;;;;;;11.15;84.05;95364.41;5075772;28;20212;-67
2023/05/14 10:52:36;;;;;;;7.47;6.28;;;;;;;11.15;84.47;95370.75;5074573;28;20216;-67
2023/05/14 10:55:07;;;;;;;6.50;5.93;;;;;;;11.17;84.25;95356.59;5075214;28;20521;-67
2023/05/14 10:57:40;;;;;;;7.15;6.53;;;;;;;11.08;85.50;95360.31;5074398;28;20629;-67
2023/05/14 11:00:11;;;;;;;7.07;6.40;;;;;;;11.12;85.53;95356.84;5074545;28;20292;-67
2023/05/14 11:02:45;;;;;;;8.25;6.53;;;;;;;11.14;85.08;95362.81;5075587;28;20185;-67
2023/05/14 11:05:18;;;;;;;7.20;6.45;;;;;;;11.18;84.68;95364.53;5075248;28;20243;-67
2023/05/14 11:07:47;;;;;;;6.97;6.47;;;;;;;11.07;84.32;95369.75;5075331;28;20262;-67
2023/05/14 11:10:14;;;;;;;7.95;7.25;;;;;;;11.06;84.51;95373.66;5074738;28;20597;-67
2023/05/14 11:12:45;;;;;;;7.25;6.60;;;;;;;11.06;84.16;95362.59;5074146;28;20204;-67
2023/05/14 11:15:16;;;;;;;7.05;6.45;;;;;;;11.09;84.53;95372.16;5074858;28;20305;-67
2023/05/14 11:17:49;;;;;;;9.13;7.63;;;;;;;11.12;84.64;95374.22;5075077;28;20186;-67
2023/05/14 11:20:19;;;;;;;10.32;9.20;;;;;;;11.15;84.81;95379.03;5074465;28;20193;-67
2023/05/14 11:22:47;;;;;;;7.78;7.18;;;;;;;11.08;84.89;95370.56;5074277;28;20266;-67
2023/05/14 11:25:17;;;;;;;8.38;7.57;;;;;;;11.12;85.51;95363.19;5074574;28;20250;-67
2023/05/14 11:27:45;;;;;;;7.63;6.93;;;;;;;11.13;85.13;95355.69;5066915;28;20216;-67
2023/05/14 11:30:16;;;;;;;7.53;6.50;;;;;;;11.19;85.15;95365.34;5070291;28;20193;-67
2023/05/14 11:32:47;;;;;;;6.82;6.22;;;;;;;11.20;84.74;95356.69;5073975;28;20205;-67
2023/05/14 11:35:15;;;;;;;6.63;6.03;;;;;;;11.16;84.88;95363.28;5073855;28;20274;-67
2023/05/14 11:37:43;;;;;;;6.20;5.70;;;;;;;11.20;84.57;95361.44;5074298;28;20625;-67
2023/05/14 11:40:15;;;;;;;6.93;6.32;;;;;;;11.15;85.01;95362.47;5074078;28;20197;-67
2023/05/14 11:42:43;;;;;;;7.10;6.47;;;;;;;11.19;84.62;95348.78;5074118;28;20250;-67
2023/05/14 11:45:15;;;;;;;6.55;6.05;;;;;;;11.20;84.56;95342.09;5073828;28;20209;-67
2023/05/14 11:47:43;;;;;;;9.05;8.25;;;;;;;11.24;84.83;95346.56;5073915;28;20247;-67
2023/05/14 11:50:15;;;;;;;7.35;6.70;;;;;;;11.27;84.84;95340.34;5074122;28;20513;-67
2023/05/14 11:52:47;;;;;;;7.50;6.90;;;;;;;11.23;85.37;95346.94;5073940;28;20193;-67
2023/05/14 11:55:14;;;;;;;16.65;15.25;;;;;;;11.17;85.66;95346.34;5074980;28;20216;-67
2023/05/14 11:57:45;;;;;;;22.25;20.65;;;;;;;11.15;85.81;95331.28;5073836;28;20243;-67